Date,TemperatureHighF,TemperatureAvgF,TemperatureLowF,DewpointHighF,DewpointAvgF,DewpointLowF,HumidityHigh,HumidityAvg,HumidityLow,PressureMaxIn,PressureMinIn,WindSpeedMaxMPH,WindSpeedAvgMPH,GustSpeedMaxMPH,PrecipitationSumIn
2013-3-1,48,39,33,35,31,27,97,73,49,29.55,29.39,13,4,13,0.00
2013-3-2,38,36,31,30,30,24,77,77,64,29.55,29.51,6,4,6,0.00
2013-3-3,38,32,28,26,22,20,77,68,54,29.52,29.45,13,5,13,0.00
2013-3-4,39,32,27,24,22,19,74,66,54,29.65,29.52,20,12,38,0.37
2013-3-5,48,38,29,31,26,21,74,63,51,29.87,29.66,13,7,26,0.37
2013-3-6,42,38,35,35,31,28,84,76,66,30.00,29.79,24,11,41,0.37
2013-3-7,36,33,32,32,31,28,99,93,75,30.03,29.79,22,14,36,0.42
2013-3-8,38,34,32,34,31,27,99,88,67,30.15,29.78,28,18,28,1.11
2013-3-9,74,41,29,37,28,23,81,62,24,30.24,30.03,23,7,23,0.30
2013-3-10,52,38,23,34,29,22,97,73,50,30.42,29.91,10,3,10,0.17
2013-3-11,53,43,36,43,37,30,89,80,63,30.33,29.80,14,4,14,0.00
2013-3-12,54,50,41,53,46,33,100,88,75,30.15,29.38,17,6,17,1.61
2013-3-13,54,41,29,33,24,18,75,53,32,29.85,29.59,15,4,15,0.00
2013-3-14,37,31,29,26,16,6,86,54,35,29.90,29.65,24,7,24,0.00
2013-3-15,45,33,25,28,15,7,69,48,31,29.93,29.53,17,8,17,0.00
2013-3-16,44,35,29,27,17,10,71,48,30,29.88,29.56,18,4,18,0.00
2013-3-17,36,28,25,18,10,2,53,47,36,30.10,29.72,15,4,15,0.00
2013-3-18,62,34,20,52,22,1,100,66,24,30.43,29.46,17,5,40,0.20
2013-3-19,37,33,29,37,31,27,100,92,84,30.16,29.49,10,4,10,0.99
2013-3-20,47,34,27,32,18,11,96,53,32,29.83,29.58,16,6,16,0.11
2013-3-21,43,32,27,25,18,7,78,56,34,29.83,29.45,9,2,9,0.00
2013-3-22,43,32,22,22,15,7,63,48,37,29.82,29.50,17,6,17,0.00
2013-3-23,47,37,30,26,18,14,63,47,30,29.87,29.57,22,7,22,0.00
2013-3-24,52,39,30,26,20,14,63,47,36,29.90,29.55,14,5,14,0.00
2013-3-25,41,35,32,26,21,13,69,57,41,29.77,29.35,10,3,10,0.00
2013-3-26,54,42,33,30,22,11,67,47,31,29.82,29.38,13,3,13,0.00
2013-3-27,58,43,30,35,25,11,92,54,26,29.91,29.62,19,5,19,0.00
2013-3-28,56,44,38,37,29,22,75,55,40,30.06,29.73,13,4,13,0.00
2013-3-29,59,47,36,39,29,23,88,52,33,30.10,29.84,13,5,13,0.00
2013-3-30,62,47,33,35,23,10,81,42,19,30.13,29.87,14,3,14,0.01
2013-3-31,56,42,29,39,30,20,88,64,28,30.14,29.50,17,3,17,0.15